Terminal Aerodrome Forecast
Issued by NWS

Home | Current Version | Previous Version | Text Only | Print | Product List | Glossary On
Versions: 1 2 3 4 5 6 7 8 9 10 11 12 13 14 15 16 17 18 19
000
FTUS46 KEKA 222337
TAFUKI
TAF
KUKI 222337Z 2300/2324 30005KT P6SM OVC035
     FM230500 00000KT 6SM BR FEW025
     FM231000 00000KT 4SM BR FEW025 BKN035=

USA.gov is the U.S. government's official web portal to all federal, state and local government web resources and services.